Time;durP1;ratioP1;P1;durP2;ratioP2;P2;SDS_P1;SDS_P2;PMS_P1;PMS_P2;Temp;Humidity;BMP_temperature;BMP_pressure;BME280_temperature;BME280_humidity;BME280_pressure;Samples;Min_cycle;Max_cycle;Signal;HPM_P1;HPM_P2
2022/04/01 00:02:18;;;;;;;;;1.00;1.00;;;;;;;;5077768;28;45402;-58
2022/04/01 00:04:43;;;;;;;;;1.50;0.50;;;;;;;;5077815;28;45279;-58
2022/04/01 00:07:08;;;;;;;;;1.75;1.75;;;;;;;;5077548;28;45251;-58
2022/04/01 00:09:34;;;;;;;;;3.50;2.50;;;;;;;;5075062;28;46147;-59
2022/04/01 00:11:59;;;;;;;;;3.00;2.00;;;;;;;;5076778;28;45572;-59
2022/04/01 00:14:24;;;;;;;;;0.50;0.50;;;;;;;;5077424;28;45510;-58
2022/04/01 00:16:51;;;;;;;;;2.00;1.00;;;;;;;;5075998;28;45581;-59
2022/04/01 00:19:16;;;;;;;;;1.00;1.00;;;;;;;;5076480;28;47944;-58
2022/04/01 00:21:42;;;;;;;;;3.75;0.75;;;;;;;;5075591;28;45261;-59
2022/04/01 00:24:07;;;;;;;;;2.25;2.25;;;;;;;;5075831;28;45317;-58
2022/04/01 00:26:32;;;;;;;;;1.00;1.00;;;;;;;;5077216;28;45197;-59
2022/04/01 00:28:57;;;;;;;;;1.50;0.75;;;;;;;;5076717;28;45425;-59
2022/04/01 00:31:23;;;;;;;;;0.50;0.50;;;;;;;;5077739;27;45350;-59
2022/04/01 00:34:15;;;;;;;;;2.75;1.00;;;;;;;;5075558;28;45302;-59
2022/04/01 00:36:33;;;;;;;;;4.25;1.75;;;;;;;;5076663;28;45268;-59
2022/04/01 00:38:59;;;;;;;;;1.75;1.00;;;;;;;;5075303;28;47405;-60
2022/04/01 00:41:24;;;;;;;;;0.00;0.00;;;;;;;;5075513;28;45775;-59
2022/04/01 00:44:09;;;;;;;;;2.00;1.00;;;;;;;;5077191;28;45534;-60
2022/04/01 00:46:34;;;;;;;;;3.50;0.00;;;;;;;;5085756;27;45504;-60
2022/04/01 00:48:59;;;;;;;;;0.75;0.00;;;;;;;;5076741;28;45387;-60
2022/04/01 00:51:25;;;;;;;;;1.25;1.25;;;;;;;;5076579;28;45509;-59
2022/04/01 00:53:50;;;;;;;;;0.25;0.25;;;;;;;;5075442;28;45295;-59
2022/04/01 00:56:15;;;;;;;;;0.75;0.25;;;;;;;;5076809;28;45548;-60
2022/04/01 00:58:41;;;;;;;;;3.75;1.75;;;;;;;;5075355;28;47553;-59
2022/04/01 01:01:07;;;;;;;;;2.25;1.00;;;;;;;;5076937;27;45497;-59
2022/04/01 01:03:32;;;;;;;;;2.00;1.00;;;;;;;;5076496;28;45542;-59
2022/04/01 01:05:58;;;;;;;;;0.00;0.00;;;;;;;;5076111;27;45385;-58
2022/04/01 01:08:23;;;;;;;;;1.00;1.00;;;;;;;;5076394;28;45356;-59
2022/04/01 01:10:48;;;;;;;;;2.00;0.00;;;;;;;;5076656;28;45612;-59
2022/04/01 01:13:13;;;;;;;;;1.00;0.00;;;;;;;;5074938;28;45536;-59
2022/04/01 01:15:38;;;;;;;;;1.00;1.00;;;;;;;;5076151;28;45486;-59
2022/04/01 01:18:05;;;;;;;;;2.25;1.00;;;;;;;;5074710;28;48460;-60
2022/04/01 01:20:30;;;;;;;;;1.25;1.00;;;;;;;;5076354;27;45401;-59
2022/04/01 01:22:57;;;;;;;;;1.00;1.00;;;;;;;;5057985;28;45393;-59
2022/04/01 01:25:22;;;;;;;;;1.00;0.00;;;;;;;;5075627;28;45380;-59
2022/04/01 01:27:48;;;;;;;;;1.75;1.75;;;;;;;;5075874;28;46547;-58
2022/04/01 01:30:13;;;;;;;;;2.00;0.00;;;;;;;;5076170;28;45809;-59
2022/04/01 01:32:38;;;;;;;;;1.00;0.00;;;;;;;;5076128;27;45344;-59
2022/04/01 01:35:04;;;;;;;;;2.50;0.50;;;;;;;;5076099;28;45398;-59
2022/04/01 01:37:30;;;;;;;;;0.00;0.00;;;;;;;;5070927;28;48654;-59
2022/04/01 01:39:55;;;;;;;;;0.00;0.00;;;;;;;;5063274;28;45363;-59
2022/04/01 01:42:20;;;;;;;;;0.00;0.00;;;;;;;;5069901;28;45404;-59
2022/04/01 01:44:46;;;;;;;;;0.00;0.00;;;;;;;;5076052;28;45439;-59
2022/04/01 01:47:12;;;;;;;;;0.25;0.00;;;;;;;;5074498;28;47425;-59
2022/04/01 01:49:37;;;;;;;;;1.50;1.50;;;;;;;;5074648;28;45412;-60
2022/04/01 01:54:49;;;;;;;;;0.00;0.00;;;;;;;;5075926;28;45411;-60
2022/04/01 01:57:24;;;;;;;;;0.75;0.75;;;;;;;;5068549;28;46965;-59
2022/04/01 01:59:50;;;;;;;;;5.75;1.00;;;;;;;;5065712;28;45367;-59
2022/04/01 02:02:17;;;;;;;;;0.50;0.50;;;;;;;;5074503;28;45444;-59
2022/04/01 02:04:42;;;;;;;;;1.00;1.00;;;;;;;;5074493;28;45537;-60
2022/04/01 02:07:08;;;;;;;;;1.50;1.50;;;;;;;;5075700;27;46010;-58
2022/04/01 02:09:34;;;;;;;;;1.00;0.00;;;;;;;;5073870;28;45385;-59
2022/04/01 02:11:59;;;;;;;;;0.00;0.00;;;;;;;;5074301;28;45399;-59
2022/04/01 02:14:25;;;;;;;;;1.50;1.50;;;;;;;;5075802;28;45509;-59
2022/04/01 02:16:51;;;;;;;;;2.25;1.00;;;;;;;;5075437;27;45407;-59
2022/04/01 02:19:21;;;;;;;;;4.50;1.00;;;;;;;;5075747;27;45409;-59
2022/04/01 02:21:47;;;;;;;;;0.75;0.75;;;;;;;;5075314;27;45433;-59
2022/04/01 02:24:13;;;;;;;;;1.00;1.00;;;;;;;;5075302;27;45355;-60
2022/04/01 02:26:38;;;;;;;;;0.00;0.00;;;;;;;;5073698;28;47982;-60
2022/04/01 02:29:05;;;;;;;;;3.00;2.00;;;;;;;;5075043;28;45299;-61
2022/04/01 02:31:31;;;;;;;;;3.00;1.75;;;;;;;;5071871;28;45288;-59
2022/04/01 02:33:56;;;;;;;;;1.00;1.00;;;;;;;;5073772;28;45345;-59
2022/04/01 02:36:21;;;;;;;;;1.50;0.50;;;;;;;;5073638;28;48779;-59
2022/04/01 02:38:47;;;;;;;;;4.75;1.00;;;;;;;;5074954;27;45731;-60
2022/04/01 02:41:12;;;;;;;;;0.75;0.00;;;;;;;;5073888;28;45520;-59
2022/04/01 02:43:37;;;;;;;;;0.00;0.00;;;;;;;;5075633;28;45448;-61
2022/04/01 02:46:05;;;;;;;;;2.50;1.50;;;;;;;;5075260;27;46667;-59
2022/04/01 02:48:30;;;;;;;;;0.25;0.25;;;;;;;;5074868;27;45470;-58
2022/04/01 02:50:55;;;;;;;;;1.00;1.00;;;;;;;;5073756;28;45426;-59
2022/04/01 02:53:21;;;;;;;;;2.00;0.25;;;;;;;;5075761;28;45450;-59
2022/04/01 02:55:47;;;;;;;;;1.75;1.75;;;;;;;;5078698;28;47339;-58
2022/04/01 02:58:13;;;;;;;;;2.00;1.00;;;;;;;;5065631;28;45169;-59
2022/04/01 03:00:39;;;;;;;;;0.75;0.75;;;;;;;;5075690;28;45450;-59
2022/04/01 03:03:06;;;;;;;;;1.00;1.00;;;;;;;;5078345;28;45353;-59
2022/04/01 03:05:39;;;;;;;;;1.50;1.00;;;;;;;;5078272;27;46056;-59
2022/04/01 03:08:05;;;;;;;;;0.50;0.50;;;;;;;;5077930;27;45609;-59
2022/04/01 03:10:32;;;;;;;;;1.75;1.00;;;;;;;;5074365;28;45411;-58
2022/04/01 03:12:57;;;;;;;;;1.00;1.00;;;;;;;;5078129;28;45523;-59
2022/04/01 03:15:24;;;;;;;;;1.00;1.00;;;;;;;;5077943;28;47077;-58
2022/04/01 03:17:49;;;;;;;;;1.00;0.00;;;;;;;;5076667;28;45542;-62
2022/04/01 03:20:14;;;;;;;;;2.00;0.75;;;;;;;;5076311;28;45470;-58
2022/04/01 03:22:40;;;;;;;;;1.25;1.25;;;;;;;;5078428;28;45465;-58
2022/04/01 03:25:06;;;;;;;;;0.00;0.00;;;;;;;;5062377;28;47732;-59
2022/04/01 03:27:32;;;;;;;;;0.00;0.00;;;;;;;;5064219;28;45514;-58
2022/04/01 03:29:57;;;;;;;;;0.00;0.00;;;;;;;;5069337;28;45482;-58
2022/04/01 03:32:23;;;;;;;;;0.00;0.00;;;;;;;;5078345;27;45450;-58
2022/04/01 03:34:48;;;;;;;;;5.00;1.00;;;;;;;;5076269;28;47803;-58
2022/04/01 03:37:14;;;;;;;;;0.00;0.00;;;;;;;;5064514;27;45443;-58
2022/04/01 03:39:41;;;;;;;;;1.50;0.00;;;;;;;;5075175;28;45657;-58
2022/04/01 03:42:09;;;;;;;;;0.00;0.00;;;;;;;;5076377;28;45519;-59
2022/04/01 03:44:37;;;;;;;;;0.00;0.00;;;;;;;;5077562;27;46549;-59
2022/04/01 03:47:05;;;;;;;;;0.00;0.00;;;;;;;;5077490;28;45457;-58
2022/04/01 03:49:31;;;;;;;;;0.00;0.00;;;;;;;;5073922;28;45391;-58
2022/04/01 03:51:58;;;;;;;;;0.00;0.00;;;;;;;;5076104;28;45590;-58
2022/04/01 03:54:24;;;;;;;;;0.00;0.00;;;;;;;;5077480;27;46510;-58
2022/04/01 03:57:28;;;;;;;;;1.00;1.00;;;;;;;;5076304;27;45419;-58
2022/04/01 03:59:54;;;;;;;;;1.25;1.25;;;;;;;;5072405;27;45654;-59
2022/04/01 04:02:20;;;;;;;;;1.00;1.00;;;;;;;;5075125;27;45673;-58
2022/04/01 04:04:46;;;;;;;;;1.00;1.00;;;;;;;;5074898;28;47759;-59
2022/04/01 04:07:11;;;;;;;;;0.75;0.75;;;;;;;;5077027;28;45331;-59
2022/04/01 04:09:38;;;;;;;;;2.00;1.00;;;;;;;;5077100;28;45357;-58
2022/04/01 04:12:04;;;;;;;;;1.00;1.00;;;;;;;;5077246;27;45391;-59
2022/04/01 04:14:30;;;;;;;;;0.00;0.00;;;;;;;;5076995;27;46360;-59
2022/04/01 04:16:56;;;;;;;;;1.00;1.00;;;;;;;;5077047;27;45518;-59
2022/04/01 04:19:33;;;;;;;;;0.00;0.00;;;;;;;;5077898;27;45441;-59
2022/04/01 04:22:09;;;;;;;;;1.00;1.00;;;;;;;;5063980;28;45574;-59
2022/04/01 04:24:53;;;;;;;;;0.50;0.50;;;;;;;;5074849;28;45880;-58
2022/04/01 04:27:24;;;;;;;;;1.50;1.50;;;;;;;;5073777;28;46384;-58
2022/04/01 04:29:50;;;;;;;;;1.50;1.00;;;;;;;;5073078;28;45352;-59
2022/04/01 04:32:25;;;;;;;;;1.50;1.50;;;;;;;;5076431;28;45443;-59
2022/04/01 04:34:51;;;;;;;;;3.25;2.00;;;;;;;;5057227;28;46212;-58
2022/04/01 04:37:21;;;;;;;;;1.00;1.00;;;;;;;;5074755;28;46156;-59
2022/04/01 04:39:48;;;;;;;;;1.00;1.00;;;;;;;;5075517;27;45443;-59
2022/04/01 04:42:15;;;;;;;;;1.00;1.00;;;;;;;;5076720;28;45461;-58
2022/04/01 04:44:41;;;;;;;;;1.00;1.00;;;;;;;;5076529;27;45371;-59
2022/04/01 04:47:06;;;;;;;;;1.00;1.00;;;;;;;;5075312;28;45375;-59
2022/04/01 04:49:32;;;;;;;;;0.75;0.75;;;;;;;;5076923;28;45625;-59
2022/04/01 04:51:58;;;;;;;;;1.00;1.00;;;;;;;;5076902;27;45458;-59
2022/04/01 04:54:24;;;;;;;;;2.75;1.50;;;;;;;;5074091;28;48657;-59
2022/04/01 04:56:49;;;;;;;;;2.00;2.00;;;;;;;;5074830;28;45457;-58
2022/04/01 04:59:17;;;;;;;;;2.00;2.00;;;;;;;;5073659;27;45747;-59
2022/04/01 05:01:49;;;;;;;;;0.50;0.50;;;;;;;;5075082;27;45598;-59
2022/04/01 05:04:17;;;;;;;;;2.75;1.50;;;;;;;;5074765;28;45550;-61
2022/04/01 05:06:52;;;;;;;;;1.25;1.25;;;;;;;;5073899;28;46124;-60
2022/04/01 05:09:23;;;;;;;;;3.00;1.00;;;;;;;;5074562;27;45505;-60
2022/04/01 05:11:51;;;;;;;;;2.00;2.00;;;;;;;;5076110;27;45379;-60
2022/04/01 05:14:35;;;;;;;;;2.00;2.00;;;;;;;;5074611;28;48560;-59
2022/04/01 05:17:02;;;;;;;;;0.00;0.00;;;;;;;;5059664;28;45368;-60
2022/04/01 05:19:29;;;;;;;;;1.50;0.50;;;;;;;;5074995;27;45370;-60
2022/04/01 05:21:54;;;;;;;;;3.75;1.25;;;;;;;;5076010;28;45436;-59
2022/04/01 05:24:25;;;;;;;;;1.00;1.00;;;;;;;;5076047;28;45409;-59
2022/04/01 05:26:54;;;;;;;;;2.25;2.25;;;;;;;;5074822;28;45511;-59
2022/04/01 05:29:27;;;;;;;;;2.25;1.25;;;;;;;;5075809;27;45639;-59
2022/04/01 05:31:58;;;;;;;;;1.00;1.00;;;;;;;;5057833;28;45354;-59
2022/04/01 05:34:37;;;;;;;;;1.75;1.75;;;;;;;;5072399;28;46714;-60
2022/04/01 05:37:02;;;;;;;;;2.25;2.25;;;;;;;;5076011;27;45164;-59
2022/04/01 05:39:29;;;;;;;;;3.25;2.00;;;;;;;;5057552;28;45298;-59
2022/04/01 05:41:55;;;;;;;;;3.00;3.00;;;;;;;;5071306;27;45439;-60
2022/04/01 05:44:22;;;;;;;;;2.25;2.25;;;;;;;;5075768;27;46295;-60
2022/04/01 05:46:48;;;;;;;;;3.00;3.00;;;;;;;;5074340;28;45383;-59
2022/04/01 05:49:13;;;;;;;;;3.00;3.00;;;;;;;;5073841;28;45379;-59
2022/04/01 05:51:40;;;;;;;;;2.00;1.00;;;;;;;;5073833;28;45489;-60
2022/04/01 05:54:05;;;;;;;;;3.00;3.00;;;;;;;;5073763;28;48517;-59
2022/04/01 05:56:35;;;;;;;;;2.00;2.00;;;;;;;;5075035;28;45495;-59
2022/04/01 05:59:00;;;;;;;;;2.00;2.00;;;;;;;;5075007;27;45514;-60
2022/04/01 06:01:31;;;;;;;;;2.75;2.75;;;;;;;;5075492;28;45317;-59
2022/04/01 06:03:56;;;;;;;;;3.00;3.00;;;;;;;;5074792;27;45419;-59
2022/04/01 06:06:31;;;;;;;;;5.50;5.50;;;;;;;;5072785;28;45389;-59
2022/04/01 06:09:16;;;;;;;;;5.75;5.75;;;;;;;;5075041;27;45355;-58
2022/04/01 06:11:44;;;;;;;;;3.50;3.50;;;;;;;;4991201;28;45469;-60
2022/04/01 06:14:34;;;;;;;;;5.50;4.00;;;;;;;;4974941;28;47381;-59
2022/04/01 06:17:02;;;;;;;;;6.75;5.50;;;;;;;;4970950;28;45364;-58
2022/04/01 06:19:46;;;;;;;;;6.00;6.00;;;;;;;;4993213;28;45268;-59
2022/04/01 06:22:15;;;;;;;;;5.75;5.75;;;;;;;;4976394;28;45404;-58
2022/04/01 06:24:43;;;;;;;;;5.25;5.25;;;;;;;;4990714;28;48633;-59
2022/04/01 06:27:11;;;;;;;;;3.75;3.75;;;;;;;;4991647;28;45495;-58
2022/04/01 06:29:41;;;;;;;;;4.50;4.50;;;;;;;;4976333;28;45422;-58
2022/04/01 06:32:21;;;;;;;;;5.00;5.00;;;;;;;;4976440;28;45641;-58
2022/04/01 06:34:47;;;;;;;;;5.00;5.00;;;;;;;;4976358;28;47405;-60
2022/04/01 06:37:20;;;;;;;;;6.50;5.50;;;;;;;;4993224;28;45405;-59
2022/04/01 06:40:11;;;;;;;;;6.25;6.25;;;;;;;;4973172;28;45652;-59
2022/04/01 06:42:38;;;;;;;;;5.50;5.50;;;;;;;;4979424;28;45526;-59
2022/04/01 06:45:15;;;;;;;;;3.25;3.25;;;;;;;;4985487;28;46113;-58
2022/04/01 06:47:40;;;;;;;;;6.00;6.00;;;;;;;;4995191;28;45412;-60
2022/04/01 06:50:06;;;;;;;;;5.75;5.75;;;;;;;;5074889;28;45473;-59
2022/04/01 06:52:31;;;;;;;;;14.00;12.25;;;;;;;;5074019;28;45236;-60
2022/04/01 06:54:57;;;;;;;;;11.00;11.00;;;;;;;;5061424;28;47760;-61
2022/04/01 06:57:22;;;;;;;;;10.00;10.00;;;;;;;;5069701;28;46200;-59
2022/04/01 06:59:48;;;;;;;;;2.00;2.00;;;;;;;;5074895;28;45326;-59
2022/04/01 07:02:13;;;;;;;;;9.00;9.00;;;;;;;;5074950;27;45351;-60
2022/04/01 07:04:38;;;;;;;;;11.00;10.75;;;;;;;;5074583;28;45640;-61
2022/04/01 07:07:04;;;;;;;;;9.75;9.75;;;;;;;;5074844;27;45162;-60
2022/04/01 07:09:29;;;;;;;;;9.00;8.50;;;;;;;;5074633;28;45510;-59
2022/04/01 07:11:56;;;;;;;;;9.00;9.00;;;;;;;;5074723;28;45579;-60
2022/04/01 07:14:21;;;;;;;;;11.00;8.50;;;;;;;;5074634;27;45540;-60
2022/04/01 07:16:46;;;;;;;;;9.50;9.50;;;;;;;;5075072;28;45242;-62
2022/04/01 07:19:11;;;;;;;;;5.00;5.00;;;;;;;;5059230;28;45364;-60
2022/04/01 07:21:37;;;;;;;;;13.00;11.75;;;;;;;;5061722;28;45554;-60
2022/04/01 07:24:02;;;;;;;;;11.50;11.50;;;;;;;;5067940;28;45733;-60
2022/04/01 07:26:27;;;;;;;;;9.00;7.00;;;;;;;;5073166;28;45487;-62
2022/04/01 07:28:54;;;;;;;;;11.00;11.00;;;;;;;;5074604;27;45339;-59
2022/04/01 07:34:03;;;;;;;;;11.25;10.75;;;;;;;;5072707;28;45379;-58
2022/04/01 07:36:28;;;;;;;;;13.00;13.00;;;;;;;;5072903;28;45466;-58
2022/04/01 07:38:54;;;;;;;;;9.75;9.75;;;;;;;;5069450;28;45498;-60
2022/04/01 07:41:19;;;;;;;;;8.75;7.75;;;;;;;;5065449;28;45347;-58
2022/04/01 07:43:44;;;;;;;;;11.25;10.75;;;;;;;;5076069;28;47701;-58
2022/04/01 07:46:11;;;;;;;;;14.25;14.25;;;;;;;;5076202;27;45430;-58
2022/04/01 07:48:36;;;;;;;;;18.00;18.00;;;;;;;;5075100;27;45475;-58
2022/04/01 07:51:01;;;;;;;;;13.50;13.50;;;;;;;;5073730;28;45761;-58
2022/04/01 07:53:27;;;;;;;;;12.25;10.50;;;;;;;;5075383;28;47482;-60
2022/04/01 07:55:52;;;;;;;;;10.50;10.50;;;;;;;;5077735;27;45435;-59
2022/04/01 07:58:18;;;;;;;;;10.00;10.00;;;;;;;;5077013;28;45262;-58
2022/04/01 08:00:44;;;;;;;;;13.25;9.50;;;;;;;;5065422;28;45459;-60
2022/04/01 08:03:11;;;;;;;;;11.50;11.50;;;;;;;;5064325;28;47393;-59
2022/04/01 08:05:36;;;;;;;;;11.25;11.25;;;;;;;;5064354;28;45524;-59
2022/04/01 08:08:02;;;;;;;;;9.50;9.25;;;;;;;;5060921;28;45588;-60
2022/04/01 08:10:27;;;;;;;;;10.50;10.50;;;;;;;;5060448;28;45443;-61
2022/04/01 08:12:52;;;;;;;;;14.75;12.75;;;;;;;;5080006;27;45476;-58
2022/04/01 08:15:18;;;;;;;;;9.50;9.50;;;;;;;;5070342;27;45372;-58
2022/04/01 08:17:43;;;;;;;;;11.00;11.00;;;;;;;;5068124;28;45379;-59
2022/04/01 08:20:11;;;;;;;;;17.25;15.50;;;;;;;;5077355;28;45402;-59
2022/04/01 08:22:37;;;;;;;;;12.75;11.00;;;;;;;;5060797;28;45373;-59
2022/04/01 08:25:02;;;;;;;;;13.75;13.75;;;;;;;;5076172;28;45390;-59
2022/04/01 08:27:27;;;;;;;;;11.00;11.00;;;;;;;;5077069;27;45492;-59
2022/04/01 08:29:57;;;;;;;;;10.00;10.00;;;;;;;;5075420;28;45319;-60
2022/04/01 08:32:22;;;;;;;;;13.25;11.75;;;;;;;;5076869;27;45699;-60
2022/04/01 08:34:48;;;;;;;;;12.25;12.25;;;;;;;;5075560;28;46301;-60
2022/04/01 08:37:13;;;;;;;;;12.25;11.00;;;;;;;;5075669;28;46320;-59
2022/04/01 08:39:43;;;;;;;;;11.25;11.25;;;;;;;;5076015;28;45483;-59
2022/04/01 08:42:08;;;;;;;;;14.00;12.75;;;;;;;;5076678;27;45706;-59
2022/04/01 08:44:37;;;;;;;;;12.50;11.25;;;;;;;;5075224;28;46003;-59
2022/04/01 08:47:03;;;;;;;;;11.00;10.00;;;;;;;;5077098;28;45534;-59
2022/04/01 08:49:29;;;;;;;;;15.50;13.25;;;;;;;;5076951;27;45593;-61
2022/04/01 08:51:54;;;;;;;;;11.25;11.25;;;;;;;;5075295;28;48136;-60
2022/04/01 08:54:19;;;;;;;;;13.75;13.75;;;;;;;;5075128;28;45700;-60
2022/04/01 08:56:45;;;;;;;;;14.75;11.50;;;;;;;;5074235;27;45437;-60
2022/04/01 08:59:11;;;;;;;;;12.50;10.75;;;;;;;;5063031;28;45347;-60
2022/04/01 09:01:40;;;;;;;;;9.00;9.00;;;;;;;;5075366;28;48226;-60
2022/04/01 09:04:19;;;;;;;;;9.00;9.00;;;;;;;;5073750;28;45845;-59
2022/04/01 09:06:45;;;;;;;;;10.50;9.50;;;;;;;;5075938;27;45534;-60
2022/04/01 09:09:26;;;;;;;;;11.50;11.50;;;;;;;;5076252;27;45455;-60
2022/04/01 09:12:04;;;;;;;;;10.00;10.00;;;;;;;;5074894;28;48651;-59
2022/04/01 09:14:29;;;;;;;;;11.00;11.00;;;;;;;;5074928;28;45368;-60
2022/04/01 09:16:55;;;;;;;;;12.50;12.50;;;;;;;;5058396;28;45458;-60
2022/04/01 09:19:27;;;;;;;;;9.00;9.00;;;;;;;;5072080;28;45482;-60
2022/04/01 09:21:53;;;;;;;;;11.50;11.50;;;;;;;;5074872;28;49022;-59
2022/04/01 09:24:18;;;;;;;;;14.75;11.00;;;;;;;;5076086;28;45638;-59
2022/04/01 09:26:44;;;;;;;;;14.50;14.50;;;;;;;;5074801;28;45464;-59
2022/04/01 09:29:10;;;;;;;;;11.50;11.50;;;;;;;;5074839;28;45363;-60
2022/04/01 09:31:37;;;;;;;;;19.00;14.00;;;;;;;;5076250;28;46152;-60
2022/04/01 09:34:06;;;;;;;;;16.25;16.25;;;;;;;;5064059;27;45550;-62
2022/04/01 09:36:38;;;;;;;;;16.00;14.50;;;;;;;;5073866;27;45941;-60
2022/04/01 09:39:08;;;;;;;;;9.75;9.75;;;;;;;;5070610;27;45463;-61
2022/04/01 09:41:38;;;;;;;;;18.75;14.75;;;;;;;;5074942;27;45482;-60
2022/04/01 09:44:03;;;;;;;;;15.75;15.75;;;;;;;;5079444;27;45444;-60
2022/04/01 09:46:28;;;;;;;;;11.50;11.50;;;;;;;;5091182;27;45481;-60
2022/04/01 09:48:57;;;;;;;;;15.50;14.50;;;;;;;;5079774;27;45139;-58
2022/04/01 09:51:23;;;;;;;;;15.00;12.00;;;;;;;;5080298;27;45841;-58
2022/04/01 09:53:52;;;;;;;;;10.50;10.50;;;;;;;;5078556;27;45297;-58
2022/04/01 09:56:17;;;;;;;;;11.75;11.75;;;;;;;;5081010;27;45487;-62
2022/04/01 09:58:43;;;;;;;;;14.50;12.75;;;;;;;;5090737;27;45394;-60
2022/04/01 10:01:08;;;;;;;;;16.75;15.50;;;;;;;;5079597;27;48536;-60
2022/04/01 10:03:34;;;;;;;;;7.25;7.25;;;;;;;;5080921;27;45869;-60
2022/04/01 10:05:59;;;;;;;;;20.50;18.00;;;;;;;;5079132;27;45402;-61
2022/04/01 10:08:25;;;;;;;;;19.25;17.00;;;;;;;;5071668;27;45474;-60
2022/04/01 10:10:51;;;;;;;;;20.50;20.50;;;;;;;;5074533;27;46716;-61
2022/04/01 10:13:24;;;;;;;;;24.00;22.00;;;;;;;;5080436;27;45988;-61
2022/04/01 10:15:50;;;;;;;;;19.75;18.75;;;;;;;;5083427;27;45364;-61
2022/04/01 10:18:18;;;;;;;;;26.25;22.00;;;;;;;;5078651;27;45492;-60
2022/04/01 10:20:43;;;;;;;;;12.25;12.25;;;;;;;;5081245;27;48417;-61
2022/04/01 10:23:11;;;;;;;;;18.50;16.00;;;;;;;;5088104;27;45304;-60
2022/04/01 10:25:54;;;;;;;;;13.50;13.50;;;;;;;;5081375;27;45458;-61
2022/04/01 10:28:20;;;;;;;;;14.25;12.50;;;;;;;;5105241;27;45621;-61
2022/04/01 10:30:59;;;;;;;;;17.00;17.00;;;;;;;;5076316;27;45555;-61
2022/04/01 10:33:36;;;;;;;;;17.00;14.00;;;;;;;;5080992;27;45397;-60
2022/04/01 10:36:15;;;;;;;;;11.75;11.75;;;;;;;;5075664;27;45416;-61
2022/04/01 10:38:40;;;;;;;;;15.00;15.00;;;;;;;;5080839;27;45510;-61
2022/04/01 10:41:12;;;;;;;;;20.50;15.25;;;;;;;;5089084;27;45510;-62
2022/04/01 10:43:40;;;;;;;;;15.00;13.25;;;;;;;;5080959;27;47192;-61
2022/04/01 10:46:10;;;;;;;;;16.25;14.00;;;;;;;;5083375;27;45524;-61
2022/04/01 10:51:36;;;;;;;;;17.75;16.75;;;;;;;;5081211;27;45909;-60
2022/04/01 10:54:12;;;;;;;;;14.00;14.00;;;;;;;;5077614;27;45747;-60
2022/04/01 10:56:38;;;;;;;;;16.25;15.75;;;;;;;;5077508;27;45615;-61
2022/04/01 10:59:15;;;;;;;;;13.50;13.25;;;;;;;;5088752;27;45466;-59
2022/04/01 11:01:52;;;;;;;;;17.00;16.25;;;;;;;;5075224;27;46240;-60
2022/04/01 11:04:17;;;;;;;;;12.00;12.00;;;;;;;;5103767;27;46339;-59
2022/04/01 11:06:56;;;;;;;;;14.50;14.50;;;;;;;;5076082;27;45633;-60
2022/04/01 11:09:36;;;;;;;;;16.25;12.50;;;;;;;;5081522;27;45470;-60
2022/04/01 11:12:16;;;;;;;;;15.75;15.00;;;;;;;;5080771;27;46553;-60
2022/04/01 11:14:56;;;;;;;;;12.50;12.50;;;;;;;;5065735;27;46402;-60
2022/04/01 11:17:33;;;;;;;;;16.00;15.00;;;;;;;;5089407;27;45402;-59
2022/04/01 11:20:22;;;;;;;;;15.00;15.00;;;;;;;;5072780;27;45374;-60
2022/04/01 11:22:54;;;;;;;;;19.50;18.50;;;;;;;;5084108;27;47292;-61
2022/04/01 11:25:22;;;;;;;;;23.25;17.00;;;;;;;;5083833;27;45359;-60
2022/04/01 11:28:14;;;;;;;;;18.25;16.50;;;;;;;;5086372;27;45471;-60
2022/04/01 11:30:39;;;;;;;;;19.25;18.00;;;;;;;;5078911;27;45674;-60
2022/04/01 11:33:13;;;;;;;;;11.75;11.25;;;;;;;;5085527;27;45477;-60
2022/04/01 11:35:44;;;;;;;;;15.50;15.25;;;;;;;;5085642;27;45410;-61
2022/04/01 11:38:13;;;;;;;;;20.25;16.50;;;;;;;;5085882;27;45411;-60
2022/04/01 11:40:39;;;;;;;;;11.00;11.00;;;;;;;;5090944;27;45406;-60
2022/04/01 11:43:05;;;;;;;;;15.25;15.25;;;;;;;;5076195;27;47952;-61
2022/04/01 11:45:30;;;;;;;;;14.50;13.50;;;;;;;;5084808;27;45558;-60
2022/04/01 11:47:55;;;;;;;;;15.00;13.75;;;;;;;;5078167;27;45528;-65
2022/04/01 11:50:22;;;;;;;;;16.00;14.75;;;;;;;;5081565;27;45442;-60
2022/04/01 11:52:55;;;;;;;;;18.50;16.25;;;;;;;;5087769;27;47771;-60
2022/04/01 11:55:21;;;;;;;;;17.25;14.50;;;;;;;;5082479;27;45371;-60
2022/04/01 11:57:47;;;;;;;;;18.00;18.00;;;;;;;;5063189;27;46313;-60
2022/04/01 12:00:17;;;;;;;;;24.25;23.00;;;;;;;;5066823;27;45391;-60
2022/04/01 12:02:43;;;;;;;;;25.00;23.50;;;;;;;;5085852;27;47430;-60
2022/04/01 12:05:09;;;;;;;;;21.50;21.50;;;;;;;;5087624;27;45316;-60
2022/04/01 12:10:19;;;;;;;;;19.25;19.00;;;;;;;;5090873;27;45644;-60
2022/04/01 12:13:02;;;;;;;;;14.75;14.75;;;;;;;;5075208;27;46416;-60
2022/04/01 12:15:30;;;;;;;;;19.50;19.50;;;;;;;;5083763;27;45345;-59
2022/04/01 12:17:55;;;;;;;;;15.75;15.00;;;;;;;;5082238;27;45532;-59
2022/04/01 12:20:21;;;;;;;;;14.00;13.50;;;;;;;;5079576;27;46069;-62
2022/04/01 12:22:46;;;;;;;;;18.00;17.50;;;;;;;;5090483;27;46243;-61
2022/04/01 12:25:11;;;;;;;;;19.75;18.75;;;;;;;;5078544;27;46360;-60
2022/04/01 12:27:52;;;;;;;;;20.25;20.00;;;;;;;;5085400;27;45575;-61
2022/04/01 12:30:31;;;;;;;;;43.25;41.25;;;;;;;;5078357;27;45351;-60
2022/04/01 12:32:58;;;;;;;;;33.25;30.00;;;;;;;;5085150;27;48598;-60
2022/04/01 12:35:23;;;;;;;;;23.75;22.00;;;;;;;;5083810;27;45617;-60
2022/04/01 12:38:21;;;;;;;;;50.50;42.00;;;;;;;;5077169;27;45406;-61
2022/04/01 12:40:47;;;;;;;;;33.00;30.50;;;;;;;;4995847;28;46093;-59
2022/04/01 12:43:28;;;;;;;;;29.00;26.00;;;;;;;;5001267;28;48778;-62
2022/04/01 12:45:57;;;;;;;;;25.00;24.50;;;;;;;;5006343;28;45492;-59
2022/04/01 12:48:24;;;;;;;;;23.75;17.50;;;;;;;;5015429;28;45410;-60
2022/04/01 12:50:49;;;;;;;;;26.25;26.25;;;;;;;;5005696;28;45359;-61
2022/04/01 12:53:15;;;;;;;;;21.75;20.25;;;;;;;;5006670;28;46063;-60
2022/04/01 12:55:40;;;;;;;;;17.25;15.50;;;;;;;;5003371;28;45531;-61
2022/04/01 12:58:12;;;;;;;;;18.25;17.50;;;;;;;;5025671;28;45983;-60
2022/04/01 13:00:37;;;;;;;;;17.25;17.25;;;;;;;;4996812;28;45662;-61
2022/04/01 13:03:02;;;;;;;;;20.50;17.00;;;;;;;;5022387;28;45684;-62
2022/04/01 13:05:28;;;;;;;;;17.75;17.75;;;;;;;;5006653;28;45547;-61
2022/04/01 13:07:54;;;;;;;;;23.75;22.00;;;;;;;;5010935;28;45499;-61
2022/04/01 13:10:21;;;;;;;;;21.25;20.25;;;;;;;;5010645;28;45435;-60
2022/04/01 13:12:47;;;;;;;;;27.75;25.00;;;;;;;;5013848;28;46628;-61
2022/04/01 13:15:14;;;;;;;;;18.25;16.25;;;;;;;;5007621;28;45595;-61
2022/04/01 13:17:46;;;;;;;;;18.50;15.25;;;;;;;;5075044;27;45377;-60
2022/04/01 13:20:12;;;;;;;;;22.75;20.00;;;;;;;;5089407;27;45491;-59
2022/04/01 13:22:38;;;;;;;;;20.25;20.25;;;;;;;;5076525;27;47323;-61
2022/04/01 13:25:03;;;;;;;;;17.50;17.00;;;;;;;;5075971;27;45442;-64
2022/04/01 13:27:29;;;;;;;;;18.00;15.25;;;;;;;;5075531;27;45465;-61
2022/04/01 13:29:55;;;;;;;;;22.75;22.75;;;;;;;;5087379;27;45478;-60
2022/04/01 13:32:20;;;;;;;;;17.25;17.25;;;;;;;;5067399;27;48102;-63
2022/04/01 13:34:46;;;;;;;;;20.25;18.50;;;;;;;;5066085;27;45416;-59
2022/04/01 13:37:11;;;;;;;;;20.25;20.25;;;;;;;;5070414;27;45704;-61
2022/04/01 13:39:36;;;;;;;;;22.25;20.75;;;;;;;;5072316;27;45982;-60
2022/04/01 13:42:02;;;;;;;;;21.75;21.25;;;;;;;;5081594;27;45552;-61
2022/04/01 13:44:28;;;;;;;;;25.25;24.75;;;;;;;;5080355;27;45475;-61
2022/04/01 13:46:54;;;;;;;;;20.25;20.25;;;;;;;;5077498;27;45401;-61
2022/04/01 13:49:19;;;;;;;;;29.75;21.25;;;;;;;;5088719;27;45379;-60
2022/04/01 13:51:45;;;;;;;;;17.25;15.00;;;;;;;;5070146;27;47683;-61
2022/04/01 13:54:10;;;;;;;;;23.25;21.25;;;;;;;;5082708;27;45466;-62
2022/04/01 13:56:36;;;;;;;;;14.25;14.25;;;;;;;;5074327;27;45768;-59
2022/04/01 13:59:01;;;;;;;;;19.25;19.25;;;;;;;;5069610;28;45998;-61
2022/04/01 14:01:26;;;;;;;;;21.00;19.75;;;;;;;;5065187;27;47034;-62
2022/04/01 14:03:53;;;;;;;;;20.75;19.25;;;;;;;;5073982;27;45544;-62
2022/04/01 14:06:19;;;;;;;;;19.25;19.00;;;;;;;;5075245;27;45437;-61
2022/04/01 14:08:44;;;;;;;;;20.25;17.50;;;;;;;;5076617;27;45548;-61
2022/04/01 14:11:09;;;;;;;;;15.75;15.00;;;;;;;;5082045;27;47467;-62
2022/04/01 14:13:35;;;;;;;;;20.25;20.25;;;;;;;;5079688;27;45454;-63
2022/04/01 14:16:01;;;;;;;;;21.50;20.00;;;;;;;;5074227;27;45575;-60
2022/04/01 14:18:27;;;;;;;;;18.75;18.75;;;;;;;;5079153;27;48460;-60
2022/04/01 14:20:57;;;;;;;;;19.50;18.00;;;;;;;;5090729;27;47820;-60
2022/04/01 14:23:23;;;;;;;;;20.75;18.25;;;;;;;;5074471;27;45648;-63
2022/04/01 14:25:49;;;;;;;;;21.25;20.00;;;;;;;;5069724;27;45404;-61
2022/04/01 14:28:14;;;;;;;;;21.75;21.50;;;;;;;;5070811;27;45716;-61
2022/04/01 14:30:40;;;;;;;;;18.00;16.75;;;;;;;;5072469;27;48516;-61
2022/04/01 14:33:05;;;;;;;;;20.25;20.25;;;;;;;;5073489;28;45447;-61
2022/04/01 14:35:31;;;;;;;;;22.50;21.25;;;;;;;;5072130;27;45474;-62
2022/04/01 14:37:57;;;;;;;;;16.50;16.50;;;;;;;;5065871;27;45728;-61
2022/04/01 14:40:22;;;;;;;;;23.25;19.50;;;;;;;;5069179;28;45485;-61
2022/04/01 14:42:48;;;;;;;;;21.00;20.25;;;;;;;;5067483;28;46141;-62
2022/04/01 14:45:14;;;;;;;;;22.75;22.75;;;;;;;;5069453;28;45474;-61
2022/04/01 14:47:39;;;;;;;;;24.50;21.25;;;;;;;;5082484;27;45511;-62